.
WxDataArchive / Data Records for 2013-12-15
2013-12-14 December 2013 2013-12-16

Data Records for Sunday, 15 December 2013

Time	Temp	Chill	HIndex	Humid	Dewpt	 Wind 	HiWind	WindDir	Rain 	Barom 
-----	----	-----	------	-----	-----	------	------	-------	-----	----- 
00:00	20.2	20.2	20.2	85	16.4	1	3	315	0.00	29.900 
00:05	19.9	19.9	19.9	85	16.1	0	2	315	0.00	29.900 
00:10	19.9	19.9	19.9	86	16.4	1	3	315	0.00	29.900 
00:15	19.9	19.9	19.9	86	16.4	0	2	315	0.00	29.900 
00:20	20.0	20.0	20.0	86	16.5	1	3	315	0.00	29.900 
00:25	20.2	20.2	20.2	86	16.7	1	3	270	0.00	29.900 
00:30	20.3	20.3	20.3	86	16.8	1	3	315	0.00	29.900 
00:35	20.3	20.3	20.3	86	16.8	1	4	315	0.00	29.900 
00:40	20.3	20.3	20.3	86	16.8	1	4	248	0.00	29.900 
00:45	20.5	20.5	20.5	86	17.0	1	4	248	0.00	29.899 
00:50	20.5	20.5	20.5	86	17.0	1	4	248	0.00	29.899 
00:55	20.5	20.5	20.5	86	17.0	1	3	248	0.00	29.899 
01:00	20.5	20.5	20.5	86	17.0	1	3	248	0.00	29.898 
01:05	20.5	20.5	20.5	86	17.0	1	4	248	0.00	29.898 
01:10	20.6	20.6	20.6	86	17.1	2	4	292	0.00	29.898 
01:15	20.6	20.6	20.6	86	17.1	1	3	248	0.00	29.898 
01:20	20.6	20.6	20.6	86	17.1	1	6	270	0.00	29.898 
01:25	20.6	20.6	20.6	86	17.1	1	3	315	0.00	29.898 
01:30	20.6	20.6	20.6	86	17.1	1	3	315	0.00	29.899 
01:35	20.6	20.6	20.6	86	17.1	1	3	292	0.00	29.899 
01:40	20.6	20.6	20.6	86	17.1	1	4	248	0.00	29.899 
01:45	20.8	20.8	20.8	86	17.3	1	3	248	0.00	29.899 
01:50	20.8	20.8	20.8	86	17.3	1	3	248	0.00	29.899 
01:55	20.8	20.8	20.8	86	17.3	0	2	248	0.00	29.899 
02:00	20.8	20.8	20.8	86	17.3	0	2	248	0.00	29.899 
02:05	20.8	20.8	20.8	86	17.3	1	2	248	0.00	29.899 
02:10	20.8	20.8	20.8	86	17.3	0	2	248	0.00	29.899 
02:15	20.8	20.8	20.8	86	17.3	0	2	248	0.00	29.900 
02:20	21.0	21.0	21.0	86	17.5	0	2	248	0.00	29.900 
02:25	21.0	21.0	21.0	86	17.5	0	1	248	0.00	29.900 
02:30	21.0	21.0	21.0	86	17.5	0	1	248	0.00	29.902 
02:35	21.0	21.0	21.0	86	17.5	0	1	248	0.00	29.902 
02:40	21.1	21.1	21.1	86	17.6	0	1	248	0.00	29.902 
02:45	21.1	21.1	21.1	87	17.8	0	0	---	0.00	29.903 
02:50	21.1	21.1	21.1	87	17.8	0	1	248	0.00	29.903 
02:55	21.1	21.1	21.1	87	17.8	0	1	248	0.00	29.903 
03:00	21.1	21.1	21.1	87	17.8	0	1	248	0.00	29.907 
03:05	21.3	21.3	21.3	87	18.0	0	1	248	0.00	29.907 
03:10	21.3	21.3	21.3	87	18.0	0	1	248	0.00	29.907 
03:15	21.3	21.3	21.3	87	18.0	0	1	248	0.00	29.911 
03:20	21.3	21.3	21.3	87	18.0	0	1	248	0.00	29.911 
03:25	21.3	21.3	21.3	87	18.0	0	1	248	0.00	29.911 
03:30	21.4	21.4	21.4	87	18.1	0	0	---	0.00	29.913 
03:35	21.4	21.4	21.4	87	18.1	0	1	248	0.00	29.913 
03:40	21.4	21.4	21.4	87	18.1	0	1	248	0.00	29.913 
03:45	21.4	21.4	21.4	87	18.1	0	1	248	0.00	29.916 
03:50	21.6	21.6	21.6	87	18.3	0	1	248	0.00	29.916 
03:55	21.6	21.6	21.6	87	18.3	0	2	248	0.00	29.916 
04:00	21.6	21.6	21.6	87	18.3	0	1	248	0.00	29.918 
04:05	21.8	21.8	21.8	87	18.5	0	1	248	0.00	29.918 
04:10	21.8	21.8	21.8	87	18.5	0	2	248	0.00	29.918 
04:15	21.8	21.8	21.8	88	18.8	0	2	248	0.00	29.916 
04:20	21.9	21.9	21.9	87	18.6	0	1	248	0.00	29.916 
04:25	21.9	21.9	21.9	88	18.9	0	1	248	0.00	29.916 
04:30	22.1	22.1	22.1	88	19.1	0	2	248	0.00	29.918 
04:35	22.1	22.1	22.1	88	19.1	0	2	248	0.00	29.918 
04:40	22.1	22.1	22.1	88	19.1	0	2	248	0.00	29.918 
04:45	22.2	22.2	22.2	88	19.2	0	2	248	0.00	29.920 
04:50	22.2	22.2	22.2	88	19.2	0	3	248	0.00	29.920 
04:55	22.4	22.4	22.4	88	19.4	0	1	248	0.00	29.920 
05:00	22.4	22.4	22.4	88	19.4	0	1	248	0.00	29.916 
05:05	22.5	22.5	22.5	88	19.5	0	2	248	0.00	29.916 
05:10	22.7	22.7	22.7	88	19.7	0	3	248	0.00	29.916 
05:15	22.7	22.7	22.7	88	19.7	0	2	248	0.00	29.915 
05:20	22.9	22.9	22.9	88	19.9	0	2	248	0.00	29.915 
05:25	23.0	23.0	23.0	89	20.3	0	2	248	0.00	29.915 
05:30	23.2	23.2	23.2	89	20.4	0	1	248	0.00	29.916 
05:35	23.2	23.2	23.2	89	20.4	0	2	248	0.00	29.916 
05:40	23.3	23.3	23.3	89	20.5	0	1	248	0.00	29.916 
05:45	23.3	23.3	23.3	89	20.5	0	1	248	0.00	29.918 
05:50	23.3	23.3	23.3	89	20.5	0	2	248	0.00	29.918 
05:55	23.5	23.5	23.5	89	20.7	0	2	248	0.00	29.918 
06:00	23.6	23.6	23.6	89	20.8	0	3	248	0.00	29.914 
06:05	23.8	23.8	23.8	89	21.0	1	3	248	0.00	29.914 
06:10	23.9	23.9	23.9	89	21.1	1	2	248	0.00	29.914 
06:15	24.1	24.1	24.1	89	21.3	1	3	248	0.00	29.914 
06:20	24.2	24.2	24.2	89	21.4	1	5	248	0.00	29.914 
06:25	24.2	24.2	24.2	88	21.2	1	3	248	0.00	29.914 
06:30	24.2	24.2	24.2	88	21.2	1	3	248	0.00	29.915 
06:35	24.2	24.2	24.2	88	21.2	1	3	248	0.00	29.915 
06:40	24.2	24.2	24.2	87	20.9	1	3	248	0.00	29.915 
06:45	24.2	24.2	24.2	87	20.9	1	4	248	0.00	29.923 
06:50	24.1	24.1	24.1	86	20.5	2	5	248	0.00	29.923 
06:55	23.9	23.9	23.9	86	20.3	2	5	248	0.00	29.923 
07:00	23.6	23.6	23.6	85	19.8	3	6	270	0.00	29.929 
07:05	23.5	23.5	23.5	85	19.7	1	4	270	0.00	29.929 
07:10	23.3	23.3	23.3	85	19.5	1	6	270	0.00	29.929 
07:15	23.0	23.0	23.0	85	19.2	1	4	248	0.00	29.930 
07:20	22.9	22.9	22.9	85	19.1	2	4	248	0.00	29.930 
07:25	22.7	22.7	22.7	85	18.9	1	4	248	0.00	29.930 
07:30	22.4	22.4	22.4	85	18.6	2	5	270	0.00	29.933 
07:35	22.1	22.1	22.1	85	18.3	2	4	248	0.00	29.933 
07:40	21.9	21.9	21.9	85	18.1	2	6	248	0.00	29.933 
07:45	21.8	21.8	21.8	85	18.0	3	9	270	0.00	29.938 
07:50	21.4	21.4	21.4	85	17.6	3	9	248	0.00	29.938 
07:55	21.1	21.1	21.1	85	17.3	2	9	248	0.00	29.938 
08:00	20.8	20.8	20.8	85	17.0	2	4	248	0.00	29.946 
08:05	20.5	20.5	20.5	84	16.4	3	9	248	0.00	29.946 
08:10	20.2	20.2	20.2	84	16.2	3	7	270	0.00	29.946 
08:15	20.0	20.0	20.0	84	16.0	1	3	248	0.00	29.947 
08:20	19.9	19.9	19.9	84	15.9	2	7	248	0.00	29.947 
08:25	19.4	19.4	19.4	84	15.4	3	6	270	0.00	29.947 
08:30	19.1	19.1	19.1	84	15.1	3	9	248	0.00	29.951 
08:35	18.8	18.8	18.8	84	14.8	2	6	248	0.00	29.951 
08:40	18.6	18.6	18.6	84	14.6	2	6	248	0.00	29.951 
08:45	18.6	18.6	18.6	83	14.3	3	7	248	0.00	29.959 
08:50	18.4	18.4	18.4	83	14.1	2	6	248	0.00	29.959 
08:55	18.3	18.3	18.3	83	14.0	3	10	248	0.00	29.959 
09:00	18.0	18.0	18.0	83	13.7	3	9	270	0.00	29.975 
09:05	17.8	11.7	17.8	83	13.5	4	10	270	0.00	29.975 
09:10	17.7	17.7	17.7	83	13.4	2	5	270	0.00	29.975 
09:15	17.3	17.3	17.3	83	13.0	3	6	270	0.00	29.981 
09:20	17.2	17.2	17.2	83	12.9	3	9	248	0.00	29.981 
09:25	17.0	17.0	17.0	83	12.7	2	4	270	0.00	29.981 
09:30	16.9	16.9	16.9	84	12.9	3	7	248	0.00	29.983 
09:35	16.7	16.7	16.7	83	12.5	3	5	248	0.00	29.983 
09:40	16.5	16.5	16.5	84	12.5	2	7	248	0.00	29.983 
09:45	16.7	16.7	16.7	83	12.5	2	6	248	0.00	29.980 
09:50	16.5	16.5	16.5	83	12.3	2	5	248	0.00	29.980 
09:55	16.5	16.5	16.5	83	12.3	2	4	270	0.00	29.980 
10:00	16.5	16.5	16.5	83	12.3	2	7	248	0.00	29.985 
10:05	16.7	16.7	16.7	82	12.2	2	6	248	0.00	29.985 
10:10	16.9	16.9	16.9	82	12.4	3	7	248	0.00	29.985 
10:15	16.7	16.7	16.7	81	11.9	3	10	270	0.00	29.987 
10:20	16.9	16.9	16.9	81	12.1	3	10	270	0.00	29.987 
10:25	16.7	16.7	16.7	81	11.9	3	6	248	0.00	29.987 
10:30	16.7	16.7	16.7	81	11.9	2	6	270	0.00	29.986 
10:35	16.7	16.7	16.7	81	11.9	3	9	270	0.00	29.986 
10:40	16.5	16.5	16.5	80	11.4	3	7	270	0.00	29.986 
10:45	16.4	16.4	16.4	80	11.3	3	7	248	0.00	29.993 
10:50	16.2	16.2	16.2	80	11.1	3	9	248	0.00	29.993 
10:55	16.5	16.5	16.5	80	11.4	2	5	248	0.00	29.993 
11:00	16.7	16.7	16.7	80	11.6	3	9	270	0.00	29.986 
11:05	16.7	16.7	16.7	79	11.3	3	9	248	0.00	29.986 
11:10	17.0	17.0	17.0	79	11.6	3	9	270	0.00	29.986 
11:15	17.0	10.7	17.0	78	11.3	4	10	270	0.00	29.988 
11:20	16.9	10.6	16.9	77	11.0	4	9	248	0.00	29.988 
11:25	16.7	10.4	16.7	77	10.8	4	9	270	0.00	29.988 
11:30	16.4	10.1	16.4	77	10.5	4	10	270	0.00	29.987 
11:35	16.4	10.1	16.4	76	10.2	4	9	248	0.00	29.987 
11:40	16.5	16.5	16.5	77	10.6	3	5	248	0.00	29.987 
11:45	16.7	16.7	16.7	77	10.8	3	9	248	0.00	29.986 
11:50	16.9	16.9	16.9	77	11.0	3	5	270	0.00	29.986 
11:55	16.9	16.9	16.9	76	10.7	3	6	248	0.00	29.986 
12:00	16.9	16.9	16.9	76	10.7	3	9	248	0.00	29.987 
12:05	16.9	16.9	16.9	76	10.7	2	5	248	0.00	29.987 
12:10	17.0	17.0	17.0	75	10.5	2	7	248	0.00	29.987 
12:15	16.9	16.9	16.9	75	10.4	2	6	292	0.00	29.989 
12:20	16.7	10.4	16.7	75	10.2	4	11	248	0.00	29.989 
12:25	16.5	16.5	16.5	75	10.0	3	7	248	0.00	29.989 
12:30	16.4	16.4	16.4	75	9.9	3	7	248	0.00	29.991 
12:35	16.4	16.4	16.4	75	9.9	3	7	248	0.00	29.991 
12:40	16.7	16.7	16.7	75	10.2	3	7	270	0.00	29.991 
12:45	16.9	16.9	16.9	75	10.4	1	4	270	0.00	29.987 
12:50	16.9	16.9	16.9	75	10.4	3	5	248	0.00	29.987 
12:55	16.7	16.7	16.7	74	9.9	3	10	248	0.00	29.987 
13:00	16.4	10.1	16.4	74	9.6	4	10	248	0.00	29.986 
13:05	16.4	16.4	16.4	74	9.6	2	8	248	0.00	29.986 
13:10	16.4	16.4	16.4	74	9.6	3	9	248	0.00	29.986 
13:15	16.2	16.2	16.2	74	9.4	3	7	270	0.00	29.988 
13:20	16.1	16.1	16.1	73	9.0	3	9	270	0.00	29.988 
13:25	16.2	16.2	16.2	73	9.1	3	10	248	0.00	29.988 
13:30	16.4	16.4	16.4	74	9.6	2	5	270	0.00	29.982 
13:35	16.1	9.7	16.1	73	9.0	4	9	270	0.00	29.982 
13:40	16.1	16.1	16.1	73	9.0	3	7	248	0.00	29.982 
13:45	16.1	16.1	16.1	73	9.0	3	7	270	0.00	29.987 
13:50	16.1	16.1	16.1	73	9.0	3	7	270	0.00	29.987 
13:55	15.9	15.9	15.9	73	8.8	3	6	248	0.00	29.987 
14:00	15.7	15.7	15.7	73	8.6	3	10	248	0.00	29.986 
14:05	15.9	15.9	15.9	74	9.1	3	7	248	0.00	29.986 
14:10	15.7	9.2	15.7	74	8.9	4	7	248	0.00	29.986 
14:15	15.9	15.9	15.9	74	9.1	3	9	248	0.00	29.997 
14:20	15.9	15.9	15.9	74	9.1	3	7	270	0.00	29.997 
14:25	15.7	15.7	15.7	74	8.9	3	7	270	0.00	29.997 
14:30	15.9	15.9	15.9	74	9.1	2	5	270	0.00	30.002 
14:35	15.9	15.9	15.9	74	9.1	3	6	248	0.00	30.002 
14:40	16.1	16.1	16.1	74	9.3	3	11	248	0.00	30.002 
14:45	16.1	16.1	16.1	73	9.0	2	6	270	0.00	30.001 
14:50	16.1	16.1	16.1	74	9.3	3	7	248	0.00	30.001 
14:55	16.1	16.1	16.1	73	9.0	3	11	248	0.00	30.001 
15:00	16.1	16.1	16.1	73	9.0	3	5	270	0.00	30.004 
15:05	16.2	16.2	16.2	73	9.1	2	6	248	0.00	30.004 
15:10	16.1	16.1	16.1	73	9.0	2	7	270	0.00	30.004 
15:15	16.1	16.1	16.1	73	9.0	3	6	270	0.00	30.001 
15:20	16.1	16.1	16.1	73	9.0	3	7	270	0.00	30.001 
15:25	16.1	16.1	16.1	73	9.0	2	6	270	0.00	30.001 
15:30	16.2	16.2	16.2	74	9.4	2	5	248	0.00	30.004 
15:35	16.2	16.2	16.2	74	9.4	3	6	248	0.00	30.004 
15:40	16.1	16.1	16.1	73	9.0	3	7	248	0.00	30.004 
15:45	15.9	15.9	15.9	73	8.8	3	9	270	0.00	30.015 
15:50	15.9	15.9	15.9	73	8.8	3	5	270	0.00	30.015 
15:55	15.9	15.9	15.9	73	8.8	2	6	248	0.00	30.015 
16:00	15.7	15.7	15.7	73	8.6	3	7	248	0.00	30.017 
16:05	15.7	15.7	15.7	73	8.6	2	4	248	0.00	30.017 
16:10	15.6	15.6	15.6	73	8.5	2	4	270	0.00	30.017 
16:15	15.7	15.7	15.7	73	8.6	2	5	270	0.00	30.018 
16:20	15.7	15.7	15.7	73	8.6	2	7	248	0.00	30.018 
16:25	15.6	15.6	15.6	73	8.5	2	5	248	0.00	30.018 
16:30	15.6	15.6	15.6	73	8.5	3	6	248	0.00	30.023 
16:35	15.6	15.6	15.6	73	8.5	2	6	248	0.00	30.023 
16:40	15.6	15.6	15.6	73	8.5	3	7	248	0.00	30.023 
16:45	15.6	15.6	15.6	73	8.5	2	4	248	0.00	30.030 
16:50	15.7	15.7	15.7	73	8.6	2	6	248	0.00	30.030 
16:55	15.7	15.7	15.7	73	8.6	1	3	248	0.00	30.030 
17:00	15.6	15.6	15.6	73	8.5	0	3	248	0.00	30.033 
17:05	15.4	15.4	15.4	73	8.3	1	4	248	0.00	30.033 
17:10	15.2	15.2	15.2	74	8.4	2	5	248	0.00	30.033 
17:15	15.1	15.1	15.1	74	8.3	1	3	248	0.00	30.037 
17:20	15.1	15.1	15.1	74	8.3	2	4	270	0.00	30.037 
17:25	15.1	15.1	15.1	74	8.3	2	4	270	0.00	30.037 
17:30	15.2	15.2	15.2	75	8.7	1	3	270	0.00	30.039 
17:35	15.4	15.4	15.4	75	8.9	1	5	248	0.00	30.039 
17:40	15.4	15.4	15.4	75	8.9	1	4	270	0.00	30.039 
17:45	15.6	15.6	15.6	75	9.1	2	5	248	0.00	30.039 
17:50	15.6	15.6	15.6	75	9.1	2	4	248	0.00	30.039 
17:55	15.6	15.6	15.6	76	9.4	1	5	248	0.00	30.039 
18:00	15.6	15.6	15.6	76	9.4	2	5	270	0.00	30.045 
18:05	15.6	15.6	15.6	76	9.4	1	5	248	0.00	30.045 
18:10	15.7	15.7	15.7	75	9.2	2	5	270	0.00	30.045 
18:15	15.7	15.7	15.7	75	9.2	1	3	248	0.00	30.057 
18:20	15.7	15.7	15.7	76	9.5	0	2	270	0.00	30.057 
18:25	15.7	15.7	15.7	75	9.2	2	5	270	0.00	30.057 
18:30	15.7	15.7	15.7	75	9.2	1	5	248	0.00	30.062 
18:35	15.7	15.7	15.7	75	9.2	1	3	248	0.00	30.062 
18:40	15.7	15.7	15.7	76	9.5	1	5	248	0.00	30.062 
18:45	15.6	15.6	15.6	76	9.4	1	3	248	0.00	30.064 
18:50	15.6	15.6	15.6	76	9.4	1	4	270	0.00	30.064 
18:55	15.6	15.6	15.6	76	9.4	1	6	248	0.00	30.064 
19:00	15.6	15.6	15.6	76	9.4	1	3	248	0.00	30.063 
19:05	15.6	15.6	15.6	76	9.4	2	5	270	0.00	30.063 
19:10	15.6	15.6	15.6	75	9.1	2	5	270	0.00	30.063 
19:15	15.6	15.6	15.6	75	9.1	1	3	270	0.00	30.074 
19:20	15.6	15.6	15.6	76	9.4	1	4	270	0.00	30.074 
19:25	15.6	15.6	15.6	76	9.4	1	4	248	0.00	30.074 
19:30	15.4	15.4	15.4	76	9.2	1	4	248	0.00	30.081 
19:35	15.4	15.4	15.4	76	9.2	1	3	248	0.00	30.081 
19:40	15.2	15.2	15.2	75	8.7	2	5	270	0.00	30.081 
19:45	15.1	15.1	15.1	75	8.6	1	5	270	0.00	30.085 
19:50	14.9	14.9	14.9	75	8.4	1	3	270	0.00	30.085 
19:55	14.9	14.9	14.9	75	8.4	1	4	270	0.00	30.085 
20:00	14.8	14.8	14.8	75	8.3	1	3	270	0.00	30.091 
20:05	14.6	14.6	14.6	74	7.8	1	4	248	0.00	30.091 
20:10	14.4	14.4	14.4	74	7.7	1	3	248	0.00	30.091 
20:15	14.3	14.3	14.3	74	7.6	1	4	248	0.00	30.101 
20:20	14.1	14.1	14.1	74	7.4	1	3	248	0.00	30.101 
20:25	14.1	14.1	14.1	73	7.1	1	3	248	0.00	30.101 
20:30	14.0	14.0	14.0	74	7.3	0	2	248	0.00	30.105 
20:35	13.8	13.8	13.8	74	7.1	0	1	248	0.00	30.105 
20:40	13.6	13.6	13.6	74	6.9	0	2	248	0.00	30.105 
20:45	13.5	13.5	13.5	74	6.8	0	2	248	0.00	30.111 
20:50	13.5	13.5	13.5	74	6.8	0	2	248	0.00	30.111 
20:55	13.3	13.3	13.3	74	6.6	0	1	248	0.00	30.111 
21:00	13.3	13.3	13.3	74	6.6	1	3	248	0.00	30.118 
21:05	13.3	13.3	13.3	74	6.6	0	1	248	0.00	30.118 
21:10	13.1	13.1	13.1	74	6.4	0	1	248	0.00	30.118 
21:15	12.9	12.9	12.9	74	6.2	0	1	248	0.00	30.119 
21:20	12.8	12.8	12.8	74	6.1	0	2	248	0.00	30.119 
21:25	12.8	12.8	12.8	74	6.1	0	1	248	0.00	30.119 
21:30	12.6	12.6	12.6	75	6.2	0	2	248	0.00	30.117 
21:35	12.3	12.3	12.3	75	5.9	0	1	248	0.00	30.117 
21:40	12.1	12.1	12.1	75	5.7	0	1	248	0.00	30.117 
21:45	12.1	12.1	12.1	76	6.0	0	2	248	0.00	30.121 
21:50	12.1	12.1	12.1	76	6.0	0	2	248	0.00	30.121 
21:55	12.1	12.1	12.1	76	6.0	1	3	248	0.00	30.121 
22:00	12.3	12.3	12.3	76	6.2	0	2	248	0.00	30.121 
22:05	12.3	12.3	12.3	76	6.2	1	3	248	0.00	30.121 
22:10	12.3	12.3	12.3	76	6.2	1	3	248	0.00	30.121 
22:15	12.1	12.1	12.1	76	6.0	0	2	248	0.00	30.121 
22:20	12.1	12.1	12.1	77	6.3	1	3	248	0.00	30.121 
22:25	12.1	12.1	12.1	77	6.3	0	2	248	0.00	30.121 
22:30	12.1	12.1	12.1	77	6.3	1	3	248	0.00	30.121 
22:35	12.1	12.1	12.1	77	6.3	0	3	248	0.00	30.121 
22:40	11.9	11.9	11.9	77	6.1	0	3	248	0.00	30.121 
22:45	11.9	11.9	11.9	77	6.1	1	3	248	0.00	30.123 
22:50	11.9	11.9	11.9	76	5.8	1	3	248	0.00	30.123 
22:55	11.9	11.9	11.9	76	5.8	1	2	248	0.00	30.123 
23:00	11.7	11.7	11.7	76	5.6	0	1	248	0.00	30.126 
23:05	11.6	11.6	11.6	77	5.8	0	2	248	0.00	30.126 
23:10	11.6	11.6	11.6	77	5.8	1	2	248	0.00	30.126 
23:15	11.4	11.4	11.4	77	5.6	0	2	248	0.00	30.124 
23:20	11.2	11.2	11.2	77	5.4	0	2	248	0.00	30.124 
23:25	11.1	11.1	11.1	77	5.3	0	1	248	0.00	30.124 
23:30	10.9	10.9	10.9	77	5.1	0	1	248	0.00	30.123 
23:35	10.7	10.7	10.7	77	4.9	0	1	248	0.00	30.123 
23:40	10.7	10.7	10.7	78	5.2	1	2	248	0.00	30.123 
23:45	10.9	10.9	10.9	78	5.4	0	2	248	0.00	30.124 
23:50	10.9	10.9	10.9	78	5.4	0	2	248	0.00	30.124 
23:55	11.1	11.1	11.1	78	5.6	0	2	248	0.00	30.124 

CoCoRaHS
IN-AL-39
A2 Web Hosting
Creative Commons License
GoDaddy
search engine by freefind advanced

loaded 2018-11-17 18:22:43 • last modified 2010-11-18 10:43:29
Privacy PolicyDisclaimer
• wx.awcolley.com is powered by PmWiki v.2002016 •
• all content (unless otherwise noted) © 2018 A W Colley